Latest Coastal Weather Observations for Coolangatta

IDQ60701

Issued at 10:01 am EST Saturday 21 January 2017 (issued every 10 minutes, with the page automatically refreshed every 10 minutes)

About coastal observations | Map of coastal stations | Coastal observations for QLD | Marine services | Other Formats
Station Details ID: 040717 Name: COOLANGATTA Lat: -28.17 Lon: 153.51 Height: 4.0 m
Data from the previous 72 hours. | See also: Recent months at Coolangatta
Date/Time
EST
Temp
°C
Wind Pressure Rain since
9am
mm
Weather Cloud Vis
km
Sea
Height
m
Swell
Dir  Spd
kts
Gust
kts
hPa Trend Height
m
Period
s
Dir
21/09:49am 27.0 SSE 15 25 1007.6 - 0.0 - Partly cloudy 10 - - - -
21/09:30am 28.5 SSE 16 22 1007.2 - 0.0 - Partly cloudy 10 - - - -
21/09:00am 27.2 SSE 14 18 1006.9 - 9.2 - Cloudy 10 - - - -
21/08:30am 27.7 SSE 5 7 1006.2 - 9.2 - Partly cloudy 10 - - - -
21/08:00am 26.4 CALM 0 0 1005.6 - 9.2 - Partly cloudy 10 - - - -
21/07:30am 25.8 WSW 3 5 1005.4 - 9.2 - Partly cloudy 10 - - - -
21/07:00am 25.7 SSW 3 6 1005.1 - 9.2 - Cloudy - - - - -
21/06:30am 25.8 WNW 3 4 1005.0 - 9.2 - Partly cloudy - - - - -
21/06:00am 25.9 ENE 2 4 1004.6 - 9.2 - Cloudy - - - - -
21/05:30am 25.4 SSE 4 5 1004.5 - 9.2 - Partly cloudy - - - - -
21/05:00am 25.5 NNW 4 6 1003.6 - 9.2 - Partly cloudy - - - - -
21/04:30am 26.0 WSW 3 5 1003.4 - 8.4 - Partly cloudy - - - - -
21/04:00am 26.6 W 6 8 1003.1 - 7.4 - Partly cloudy 10 - - - -
21/03:30am 27.1 WNW 5 8 1002.4 - 7.4 - Partly cloudy 10 - - - -
21/03:00am 27.2 NW 12 17 1002.0 - 7.4 - Cloudy 10 - - - -
21/02:30am 26.4 NW 8 11 1001.7 - 7.4 - Partly cloudy 10 - - - -
21/02:00am 26.1 NW 8 11 1001.7 - 7.4 - Partly cloudy 10 - - - -
21/01:30am 25.9 NNW 8 11 1002.0 - 7.4 - - 10 - - - -
21/01:00am 25.4 NW 5 8 1002.1 - 7.4 - - 10 - - - -
21/12:30am 25.3 NW 6 8 1002.4 - 7.2 - - 10 - - - -
21/12:00am 25.5 NNW 6 8 1002.5 - 7.2 - Mostly cloudy 10 - - - -
 
Date/Time
EST
Temp
°C
Wind Pressure Rain since
9am
mm
Weather Cloud Vis
km
Sea
Height
m
Swell
Dir  Spd
kts
Gust
kts
hPa Trend Height
m
Period
s
Dir
20/11:30pm 25.6 WNW 4 6 1003.2 - 7.2 - Partly cloudy - - - - -
20/11:00pm 25.6 NW 4 6 1003.3 - 7.2 - Partly cloudy - - - - -
20/10:30pm 25.4 W 4 5 1004.1 - 7.2 - Partly cloudy 9 - - - -
20/10:00pm 25.6 NW 5 6 1004.2 - 7.2 - - - - - - -
20/09:30pm 26.0 NNE 9 11 1004.5 - 7.2 - - - - - - -
20/09:00pm 25.6 NNE 8 10 1004.6 - 7.2 Thunderstorm Cloudy - - - - -
20/08:50pm 25.6 ENE 6 9 1004.9 - 7.2 - Partly cloudy - - - - -
20/08:30pm 25.5 SSE 9 13 1005.2 - 7.0 - Partly cloudy - - - - -
20/08:15pm 26.3 SSW 10 19 1005.4 - 2.0 - Partly cloudy 6 - - - -
20/08:03pm 27.0 WSW 7 12 1005.2 - 0.0 - Partly cloudy 10 - - - -
20/08:00pm 27.1 WNW 7 11 1004.8 - 0.0 - Partly cloudy 10 - - - -
20/07:30pm 26.9 NNW 12 18 1003.8 - 0.0 - - 10 - - - -
20/07:00pm 26.9 N 15 20 1003.3 - 0.0 - - 10 - - - -
20/06:30pm 27.1 N 17 24 1002.9 - 0.0 - - 10 - - - -
20/06:00pm 27.4 N 17 22 1002.6 - 0.0 - Cloudy 10 - - - -
20/05:30pm 27.6 N 14 19 1002.8 - 0.0 - - 10 - - - -
20/05:00pm 28.0 N 14 18 1002.4 - 0.0 - - 10 - - - -
20/04:30pm 28.5 N 17 23 1001.9 - 0.0 - - 10 - - - -
20/04:00pm 28.6 N 16 21 1002.1 - 0.0 - - 10 - - - -
20/03:30pm 28.9 N 17 21 1002.4 - 0.0 - - 10 - - - -
20/03:00pm 28.8 N 17 21 1002.7 - 0.0 - - 10 - - - -
20/02:30pm 28.8 N 17 21 1003.1 - 0.0 - - 10 - - - -
20/02:00pm 28.6 N 16 20 1003.8 - 0.0 - - 10 - - - -
20/01:30pm 28.2 NNE 13 16 1004.7 - 0.0 - - 10 - - - -
20/01:00pm 28.4 NNE 15 19 1005.2 - 0.0 - Partly cloudy 10 - - - -
20/12:30pm 29.0 N 12 16 1005.9 - 0.0 - Partly cloudy 10 - - - -
20/12:00pm 27.0 N 12 15 1006.5 - 0.0 - Cloudy 10 - - - -
20/11:30am 27.0 N 12 15 1006.9 - 0.0 - Partly cloudy 10 - - - -
20/11:00am 27.7 N 11 15 1007.3 - 0.0 - Partly cloudy 10 - - - -
20/10:30am 26.6 N 9 12 1008.0 - 0.0 - Partly cloudy 10 - - - -
20/10:00am 25.7 N 8 10 1008.6 - 0.0 - Partly cloudy 10 - - - -
20/09:31am 24.7 N 6 9 1009.0 - 0.0 - Partly cloudy 10 - - - -
20/09:30am 24.4 N 6 9 1009.0 - 0.0 - Partly cloudy 10 - - - -
20/09:09am 24.1 NNW 5 7 1008.9 - 0.0 - Partly cloudy 5 - - - -
20/09:00am 24.4 WNW 4 6 1009.0 - 0.0 - Cloudy - - - - -
20/08:37am 23.3 WSW 5 7 1009.1 - 0.0 - Partly cloudy - - - - -
20/08:30am 23.2 WSW 5 7 1009.2 - 0.0 - Partly cloudy - - - - -
20/08:00am 23.1 WNW 4 6 1009.3 - 0.0 - Cloudy - - - - -
20/07:30am 23.1 W 5 7 1009.6 - 0.0 - Partly cloudy 6 - - - -
20/07:20am 23.4 WNW 4 5 1009.7 - 0.0 - Cloudy 6 - - - -
20/07:18am 23.4 WNW 4 5 1009.7 - 0.0 - Cloudy 7 - - - -
20/07:00am 23.3 WNW 3 4 1009.5 - 0.0 - Partly cloudy 9 - - - -
20/06:30am 23.4 SSW 3 4 1009.3 - 0.0 - Partly cloudy 10 - - - -
20/06:00am 22.9 SE 4 5 1009.2 - 0.0 - Cloudy - - - - -
20/05:30am 22.8 SW 6 7 1009.1 - 0.0 - Partly cloudy - - - - -
20/05:00am 22.8 SW 3 5 1008.7 - 0.0 - Partly cloudy 10 - - - -
20/04:30am 22.6 WSW 2 4 1008.4 - 0.0 - Partly cloudy 10 - - - -
20/04:00am 22.5 SW 3 4 1008.2 - 0.0 - Partly cloudy 10 - - - -
20/03:30am 22.3 SW 3 5 1008.3 - 0.0 - Partly cloudy - - - - -
20/03:00am 22.1 CALM 0 4 1008.3 - 0.0 - Mostly clear 10 - - - -
20/02:30am 22.5 S 5 6 1008.6 - 0.0 - Partly cloudy - - - - -
20/02:00am 22.5 S 7 8 1009.0 - 0.0 - Partly cloudy - - - - -
20/01:30am 22.5 S 5 6 1009.5 - 0.0 - Partly cloudy 10 - - - -
20/01:00am 22.6 SSW 4 5 1009.6 - 0.0 - - 10 - - - -
20/12:30am 23.1 SW 6 7 1010.0 - 0.0 - Partly cloudy 10 - - - -
20/12:00am 23.4 SW 5 7 1010.3 - 0.0 - Cloudy 10 - - - -
 
Date/Time
EST
Temp
°C
Wind Pressure Rain since
9am
mm
Weather Cloud Vis
km
Sea
Height
m
Swell
Dir  Spd
kts
Gust
kts
hPa Trend Height
m
Period
s
Dir
19/11:30pm 23.2 SSW 6 8 1010.8 - 0.0 - Partly cloudy 10 - - - -
19/11:00pm 23.2 SW 5 8 1011.2 - 0.0 - Cloudy 10 - - - -
19/10:30pm 23.1 SW 4 5 1011.3 - 0.0 - Partly cloudy - - - - -
19/10:00pm 23.2 SW 4 5 1011.3 - 0.0 - Cloudy - - - - -
19/09:30pm 23.1 SW 5 6 1011.7 - 0.0 - Partly cloudy - - - - -
19/09:00pm 23.1 SW 7 9 1011.7 - 0.0 - Cloudy - - - - -
19/08:30pm 23.6 SW 6 8 1011.7 - 0.0 - Partly cloudy 10 - - - -
19/08:00pm 25.1 SSE 6 10 1011.0 - 0.0 - Partly cloudy 10 - - - -
19/07:30pm 25.1 SSE 8 11 1010.8 - 0.0 - Partly cloudy 10 - - - -
19/07:00pm 25.2 SSE 8 12 1010.6 - 0.0 - Partly cloudy 10 - - - -
19/06:30pm 25.3 S 9 14 1010.4 - 0.0 - Cloudy 10 - - - -
19/06:00pm 25.6 SSE 10 15 1010.1 - 0.0 - Cloudy 10 - - - -
19/05:30pm 26.0 SSE 10 15 1009.8 - 0.0 - Cloudy 10 - - - -
19/05:00pm 26.1 SSE 14 21 1009.6 - 0.0 - Cloudy 10 - - - -
19/04:30pm 26.2 SSE 13 19 1009.5 - 0.0 - Partly cloudy 10 - - - -
19/04:00pm 26.1 S 15 21 1009.6 - 0.0 - Partly cloudy 10 - - - -
19/03:30pm 26.5 SSE 11 16 1010.0 - 0.0 - Partly cloudy 10 - - - -
19/03:00pm 26.3 SSE 15 20 1010.1 - 0.0 - Mostly cloudy 10 - - - -
19/02:30pm 27.4 SSE 15 21 1010.5 - 0.0 - Cloudy 10 - - - -
19/02:00pm 27.4 SSE 16 21 1010.7 - 0.0 - Cloudy 10 - - - -
19/01:30pm 28.0 SSE 17 24 1010.7 - 0.0 - Partly cloudy 10 - - - -
19/01:00pm 29.9 SSE 15 23 1010.8 - 0.0 - Partly cloudy 10 - - - -
19/12:30pm 28.6 SSE 18 24 1011.0 - 0.0 - Partly cloudy 10 - - - -
19/12:00pm 30.5 SSE 13 22 1011.0 - 0.0 - Mostly clear 10 - - - -
19/11:30am 28.9 S 14 18 1011.1 - 0.0 - Partly cloudy 10 - - - -
19/11:00am 29.0 SSE 18 23 1011.2 - 0.0 - Partly cloudy 10 - - - -
19/10:30am 28.6 SSE 17 25 1011.3 - 0.0 - Partly cloudy 10 - - - -
19/10:00am 27.8 S 15 20 1011.3 - 0.0 - Partly cloudy 10 - - - -
19/09:30am 28.2 S 15 19 1011.4 - 0.0 - Partly cloudy 10 - - - -
19/09:00am 27.7 S 15 21 1011.4 - 0.0 - Mostly cloudy 10 - - - -
19/08:30am 27.6 S 16 24 1011.4 - 0.0 - Partly cloudy 10 - - - -
19/08:00am 27.4 S 14 20 1011.2 - 0.0 - Partly cloudy 10 - - - -
19/07:30am 26.7 S 16 24 1011.1 - 0.0 - Partly cloudy 10 - - - -
19/07:00am 26.3 S 13 19 1011.0 - 0.0 - Partly cloudy 10 - - - -
19/06:30am 26.3 S 17 24 1010.5 - 0.0 - Partly cloudy 10 - - - -
19/06:00am 26.4 S 14 19 1010.2 - 0.0 - Cloudy 10 - - - -
19/05:30am 26.3 S 13 18 1009.8 - 0.0 - Partly cloudy 10 - - - -
19/05:01am 26.4 S 15 25 1009.3 - 0.0 - Partly cloudy 10 - - - -
19/05:00am 26.5 S 15 24 1009.3 - 0.0 - Partly cloudy 10 - - - -
19/04:30am 26.5 SSW 14 22 1008.7 - 0.0 - Partly cloudy 10 - - - -
19/04:00am 26.6 S 13 21 1008.2 - 0.0 - - 10 - - - -
19/03:30am 26.8 S 14 20 1007.7 - 0.0 - Partly cloudy 10 - - - -
19/03:12am 26.9 S 15 27 1007.7 - 0.0 - Partly cloudy 10 - - - -
19/03:00am 26.9 S 13 19 1007.6 - 0.0 - Partly cloudy 10 - - - -
19/02:30am 26.7 S 11 18 1007.6 - 0.0 - - 10 - - - -
19/02:00am 26.8 S 11 16 1007.7 - 0.0 - - 10 - - - -
19/01:30am 26.9 SSE 12 17 1007.9 - 0.0 - - 10 - - - -
19/01:00am 27.2 SSE 9 16 1008.2 - 0.0 - Partly cloudy 10 - - - -
19/12:30am 25.6 N 9 11 1006.7 - 0.0 - - 8 - - - -
19/12:00am 26.3 NNW 8 11 1007.1 - 0.0 - - 10 - - - -
 
Date/Time
EST
Temp
°C
Wind Pressure Rain since
9am
mm
Weather Cloud Vis
km
Sea
Height
m
Swell
Dir  Spd
kts
Gust
kts
hPa Trend Height
m
Period
s
Dir
18/11:30pm 25.9 NNW 9 12 1007.5 - 0.0 - - 10 - - - -
18/11:00pm 26.2 NNW 8 12 1007.8 - 0.0 - - 10 - - - -
18/10:30pm 26.5 N 10 13 1008.1 - 0.0 - - 10 - - - -
18/10:00pm 26.7 N 8 9 1008.3 - 0.0 - - 9 - - - -
18/09:30pm 28.2 NNW 7 10 1008.4 - 0.0 - - 10 - - - -
18/09:00pm 28.2 N 9 11 1008.2 - 0.0 - - 10 - - - -
18/08:30pm 28.2 N 9 14 1008.2 - 0.0 - - 10 - - - -
18/08:00pm 27.6 N 9 12 1008.0 - 0.0 - - 10 - - - -
18/07:30pm 26.1 N 13 15 1007.6 - 0.0 - - 10 - - - -
18/07:00pm 26.1 NNW 11 14 1007.2 - 0.0 - - 10 - - - -
18/06:30pm 26.3 N 14 18 1007.0 - 0.0 - - 10 - - - -
18/06:00pm 26.6 N 15 19 1006.9 - 0.0 - - 10 - - - -
18/05:30pm 27.2 N 15 20 1006.8 - 0.0 - - 10 - - - -
18/05:00pm 27.7 N 14 18 1006.6 - 0.0 - - 10 - - - -
18/04:30pm 28.1 N 16 20 1006.7 - 0.0 - - 10 - - - -
18/04:00pm 28.7 N 16 20 1006.8 - 0.0 - - 10 - - - -
18/03:30pm 28.7 N 16 20 1007.1 - 0.0 - - 10 - - - -
18/03:00pm 29.1 N 18 23 1007.5 - 0.0 - - 10 - - - -
18/02:30pm 29.0 N 18 23 1007.8 - 0.0 - - 10 - - - -
18/02:00pm 29.6 N 18 22 1008.4 - 0.0 - - 10 - - - -
18/01:30pm 28.9 N 18 23 1008.7 - 0.0 - - 10 - - - -
18/01:00pm 29.1 N 18 23 1009.2 - 0.0 - - 10 - - - -
18/12:30pm 29.4 N 19 24 1009.6 - 0.0 - - 10 - - - -
18/12:00pm 29.2 N 18 24 1010.0 - 0.0 - Mostly clear 10 - - - -
18/11:30am 28.2 N 18 23 1010.5 - 0.0 - - 10 - - - -
18/11:00am 29.0 N 16 21 1010.8 - 0.0 - - 10 - - - -
18/10:30am 30.3 N 15 19 1011.2 - 0.0 - - 10 - - - -

Other Formats:

Comma delimited format used in spreadsheet applications
http://www.bom.gov.au/fwo/IDQ60701/IDQ60701.94592.axf

JavaScript Object Notation format (JSON) in row-major order
http://www.bom.gov.au/fwo/IDQ60701/IDQ60701.94592.json